KBPT/BPT METAR and TAF weather

Enter ICAO airport designator
Station Type Date Time Source
KBPT METAR 2023/02/06 19:53 UTC NOAA

KBPT 061953Z 17013G23KT 10SM SCT037 23/13 A3008 RMK AO2 SLP185 T02280128


Station Type Date Time Source
KBPT Decoded METAR 2023/02/06 19:53 UTC NOAA

SOUTHEAST TEXAS RGNL AIRPORT, TX, United States (KBPT) 29-95N 094-08W 5M
Feb 06, 2023 - 02:53 PM EST / 2023.02.06 1953 UTC
Wind: from the S (170 degrees) at 15 MPH (13 KT) gusting to 26 MPH (23 KT):0
Visibility: 10 mile(s):0
Sky conditions: partly cloudy
Temperature: 73.0 F (22.8 C)
Dew Point: 55.0 F (12.8 C)
Relative Humidity: 53%
Pressure (altimeter): 30.08 in. Hg (1018 hPa)
ob: KBPT 061953Z 17013G23KT 10SM SCT037 23/13 A3008 RMK AO2 SLP185 T02280128
cycle: 20

Station Type Date Time Source
KBPT TAF 2023/02/06 18:51 UTC NOAA

KBPT 061720Z 0618/0718 15014G20KT P6SM FEW040 SCT250
FM070000 14010KT P6SM SCT030 BKN250
FM070600 14009KT P6SM BKN025

Example: see airport list